sensor_id;sensor_type;location;lat;lon;timestamp;P1;durP1;ratioP1;P2;durP2;ratioP2
71046;SDS011;58703;48.978;8.982;2022-07-05T00:01:58;7.20;;;3.10;;
71046;SDS011;58703;48.978;8.982;2022-07-05T00:04:23;2.87;;;2.67;;
71046;SDS011;58703;48.978;8.982;2022-07-05T00:06:49;2.60;;;2.40;;
71046;SDS011;58703;48.978;8.982;2022-07-05T00:09:33;2.55;;;2.13;;
71046;SDS011;58703;48.978;8.982;2022-07-05T00:11:59;2.47;;;2.27;;
71046;SDS011;58703;48.978;8.982;2022-07-05T00:14:24;3.37;;;3.07;;
71046;SDS011;58703;48.978;8.982;2022-07-05T00:16:50;3.17;;;2.80;;
71046;SDS011;58703;48.978;8.982;2022-07-05T00:19:15;3.70;;;3.25;;
71046;SDS011;58703;48.978;8.982;2022-07-05T00:21:41;6.40;;;2.93;;
71046;SDS011;58703;48.978;8.982;2022-07-05T00:24:07;5.43;;;2.60;;
71046;SDS011;58703;48.978;8.982;2022-07-05T00:26:32;3.05;;;2.53;;
71046;SDS011;58703;48.978;8.982;2022-07-05T00:28:57;4.73;;;2.90;;
71046;SDS011;58703;48.978;8.982;2022-07-05T00:31:23;3.93;;;2.70;;
71046;SDS011;58703;48.978;8.982;2022-07-05T00:33:49;2.97;;;2.67;;
71046;SDS011;58703;48.978;8.982;2022-07-05T00:36:14;8.00;;;3.10;;
71046;SDS011;58703;48.978;8.982;2022-07-05T00:38:40;4.90;;;2.60;;
71046;SDS011;58703;48.978;8.982;2022-07-05T00:41:05;4.85;;;3.15;;
71046;SDS011;58703;48.978;8.982;2022-07-05T00:43:31;3.40;;;3.10;;
71046;SDS011;58703;48.978;8.982;2022-07-05T00:45:57;5.97;;;3.20;;
71046;SDS011;58703;48.978;8.982;2022-07-05T00:48:22;3.87;;;2.63;;
71046;SDS011;58703;48.978;8.982;2022-07-05T00:50:48;3.03;;;2.58;;
71046;SDS011;58703;48.978;8.982;2022-07-05T00:53:15;3.10;;;2.80;;
71046;SDS011;58703;48.978;8.982;2022-07-05T00:55:42;4.67;;;3.53;;
71046;SDS011;58703;48.978;8.982;2022-07-05T00:58:09;3.13;;;2.88;;
71046;SDS011;58703;48.978;8.982;2022-07-05T01:00:35;3.33;;;2.70;;
71046;SDS011;58703;48.978;8.982;2022-07-05T01:03:00;3.27;;;2.23;;
71046;SDS011;58703;48.978;8.982;2022-07-05T01:05:27;2.25;;;2.00;;
71046;SDS011;58703;48.978;8.982;2022-07-05T01:07:54;1.93;;;1.83;;
71046;SDS011;58703;48.978;8.982;2022-07-05T01:10:20;2.25;;;2.03;;
71046;SDS011;58703;48.978;8.982;2022-07-05T01:12:46;2.90;;;2.70;;
71046;SDS011;58703;48.978;8.982;2022-07-05T01:15:12;2.90;;;2.50;;
71046;SDS011;58703;48.978;8.982;2022-07-05T01:17:38;4.70;;;3.10;;
71046;SDS011;58703;48.978;8.982;2022-07-05T01:20:04;4.25;;;3.03;;
71046;SDS011;58703;48.978;8.982;2022-07-05T01:22:38;3.55;;;3.22;;
71046;SDS011;58703;48.978;8.982;2022-07-05T01:25:16;3.90;;;3.23;;
71046;SDS011;58703;48.978;8.982;2022-07-05T01:27:42;3.40;;;2.65;;
71046;SDS011;58703;48.978;8.982;2022-07-05T01:30:07;3.40;;;3.10;;
71046;SDS011;58703;48.978;8.982;2022-07-05T01:32:33;3.13;;;2.80;;
71046;SDS011;58703;48.978;8.982;2022-07-05T01:34:59;2.80;;;2.60;;
71046;SDS011;58703;48.978;8.982;2022-07-05T01:37:24;3.17;;;2.87;;
71046;SDS011;58703;48.978;8.982;2022-07-05T01:39:51;3.77;;;2.40;;
71046;SDS011;58703;48.978;8.982;2022-07-05T01:42:17;3.00;;;2.75;;
71046;SDS011;58703;48.978;8.982;2022-07-05T01:44:42;3.65;;;2.90;;
71046;SDS011;58703;48.978;8.982;2022-07-05T01:47:08;3.07;;;2.60;;
71046;SDS011;58703;48.978;8.982;2022-07-05T01:49:34;4.35;;;3.22;;
71046;SDS011;58703;48.978;8.982;2022-07-05T01:52:09;6.03;;;3.00;;
71046;SDS011;58703;48.978;8.982;2022-07-05T01:54:36;3.67;;;3.37;;
71046;SDS011;58703;48.978;8.982;2022-07-05T01:57:03;3.15;;;2.67;;
71046;SDS011;58703;48.978;8.982;2022-07-05T01:59:33;5.13;;;2.60;;
71046;SDS011;58703;48.978;8.982;2022-07-05T02:02:00;3.83;;;3.20;;
71046;SDS011;58703;48.978;8.982;2022-07-05T02:04:27;2.70;;;2.42;;
71046;SDS011;58703;48.978;8.982;2022-07-05T02:06:53;3.15;;;2.80;;
71046;SDS011;58703;48.978;8.982;2022-07-05T02:09:19;5.50;;;3.00;;
71046;SDS011;58703;48.978;8.982;2022-07-05T02:11:44;4.20;;;2.55;;
71046;SDS011;58703;48.978;8.982;2022-07-05T02:14:10;2.63;;;2.40;;
71046;SDS011;58703;48.978;8.982;2022-07-05T02:16:37;3.88;;;2.50;;
71046;SDS011;58703;48.978;8.982;2022-07-05T02:19:03;3.20;;;2.30;;
71046;SDS011;58703;48.978;8.982;2022-07-05T02:21:29;2.65;;;2.35;;
71046;SDS011;58703;48.978;8.982;2022-07-05T02:23:55;4.78;;;2.20;;
71046;SDS011;58703;48.978;8.982;2022-07-05T02:26:20;3.70;;;2.23;;
71046;SDS011;58703;48.978;8.982;2022-07-05T02:28:46;4.03;;;2.23;;
71046;SDS011;58703;48.978;8.982;2022-07-05T02:31:12;2.27;;;1.90;;
71046;SDS011;58703;48.978;8.982;2022-07-05T02:33:37;4.32;;;2.40;;
71046;SDS011;58703;48.978;8.982;2022-07-05T02:36:06;2.47;;;2.27;;
71046;SDS011;58703;48.978;8.982;2022-07-05T02:38:36;1.95;;;1.85;;
71046;SDS011;58703;48.978;8.982;2022-07-05T02:41:04;2.35;;;2.15;;
71046;SDS011;58703;48.978;8.982;2022-07-05T02:43:31;2.20;;;2.00;;
71046;SDS011;58703;48.978;8.982;2022-07-05T02:45:58;2.13;;;1.93;;
71046;SDS011;58703;48.978;8.982;2022-07-05T02:48:24;4.53;;;2.53;;
71046;SDS011;58703;48.978;8.982;2022-07-05T02:50:50;5.28;;;2.38;;
71046;SDS011;58703;48.978;8.982;2022-07-05T02:53:15;2.40;;;2.20;;
71046;SDS011;58703;48.978;8.982;2022-07-05T02:55:41;2.33;;;2.13;;
71046;SDS011;58703;48.978;8.982;2022-07-05T02:58:06;2.10;;;2.00;;
71046;SDS011;58703;48.978;8.982;2022-07-05T03:00:32;2.10;;;1.93;;
71046;SDS011;58703;48.978;8.982;2022-07-05T03:02:57;2.63;;;2.43;;
71046;SDS011;58703;48.978;8.982;2022-07-05T03:05:30;4.20;;;2.40;;
71046;SDS011;58703;48.978;8.982;2022-07-05T03:07:58;2.47;;;2.13;;
71046;SDS011;58703;48.978;8.982;2022-07-05T03:10:30;2.87;;;2.13;;
71046;SDS011;58703;48.978;8.982;2022-07-05T03:12:56;3.78;;;1.90;;
71046;SDS011;58703;48.978;8.982;2022-07-05T03:15:22;3.38;;;1.70;;
71046;SDS011;58703;48.978;8.982;2022-07-05T03:17:47;3.10;;;1.50;;
71046;SDS011;58703;48.978;8.982;2022-07-05T03:20:13;3.03;;;2.03;;
71046;SDS011;58703;48.978;8.982;2022-07-05T03:22:38;2.20;;;2.00;;
71046;SDS011;58703;48.978;8.982;2022-07-05T03:25:05;3.93;;;2.17;;
71046;SDS011;58703;48.978;8.982;2022-07-05T03:27:30;3.60;;;2.50;;
71046;SDS011;58703;48.978;8.982;2022-07-05T03:29:56;3.78;;;2.83;;
71046;SDS011;58703;48.978;8.982;2022-07-05T03:32:22;5.20;;;2.30;;
71046;SDS011;58703;48.978;8.982;2022-07-05T03:34:47;3.10;;;2.20;;
71046;SDS011;58703;48.978;8.982;2022-07-05T03:37:13;2.78;;;2.17;;
71046;SDS011;58703;48.978;8.982;2022-07-05T03:39:38;2.50;;;2.00;;
71046;SDS011;58703;48.978;8.982;2022-07-05T03:42:05;2.67;;;1.90;;
71046;SDS011;58703;48.978;8.982;2022-07-05T03:44:32;4.20;;;2.10;;
71046;SDS011;58703;48.978;8.982;2022-07-05T03:46:59;3.50;;;2.38;;
71046;SDS011;58703;48.978;8.982;2022-07-05T03:49:26;3.00;;;2.47;;
71046;SDS011;58703;48.978;8.982;2022-07-05T03:51:53;3.55;;;2.60;;
71046;SDS011;58703;48.978;8.982;2022-07-05T03:54:19;5.63;;;2.40;;
71046;SDS011;58703;48.978;8.982;2022-07-05T03:56:46;3.20;;;2.17;;
71046;SDS011;58703;48.978;8.982;2022-07-05T03:59:11;2.35;;;2.08;;
71046;SDS011;58703;48.978;8.982;2022-07-05T04:01:38;8.55;;;1.95;;
71046;SDS011;58703;48.978;8.982;2022-07-05T04:04:05;2.30;;;2.10;;
71046;SDS011;58703;48.978;8.982;2022-07-05T04:06:32;4.93;;;2.17;;
71046;SDS011;58703;48.978;8.982;2022-07-05T04:08:59;2.15;;;1.83;;
71046;SDS011;58703;48.978;8.982;2022-07-05T04:11:24;2.05;;;1.95;;
71046;SDS011;58703;48.978;8.982;2022-07-05T04:13:51;2.20;;;1.70;;
71046;SDS011;58703;48.978;8.982;2022-07-05T04:16:16;2.05;;;1.50;;
71046;SDS011;58703;48.978;8.982;2022-07-05T04:18:43;2.13;;;1.33;;
71046;SDS011;58703;48.978;8.982;2022-07-05T04:21:10;1.42;;;1.23;;
71046;SDS011;58703;48.978;8.982;2022-07-05T04:23:37;1.58;;;1.20;;
71046;SDS011;58703;48.978;8.982;2022-07-05T04:26:02;3.03;;;1.30;;
71046;SDS011;58703;48.978;8.982;2022-07-05T04:28:28;2.42;;;1.02;;
71046;SDS011;58703;48.978;8.982;2022-07-05T04:30:57;1.43;;;0.83;;
71046;SDS011;58703;48.978;8.982;2022-07-05T04:33:24;5.45;;;1.30;;
71046;SDS011;58703;48.978;8.982;2022-07-05T04:35:50;3.38;;;1.17;;
71046;SDS011;58703;48.978;8.982;2022-07-05T04:38:16;3.43;;;1.10;;
71046;SDS011;58703;48.978;8.982;2022-07-05T04:40:43;2.28;;;1.17;;
71046;SDS011;58703;48.978;8.982;2022-07-05T04:43:10;3.28;;;1.08;;
71046;SDS011;58703;48.978;8.982;2022-07-05T04:45:38;2.05;;;1.38;;
71046;SDS011;58703;48.978;8.982;2022-07-05T04:48:04;1.85;;;1.20;;
71046;SDS011;58703;48.978;8.982;2022-07-05T04:50:31;3.70;;;1.20;;
71046;SDS011;58703;48.978;8.982;2022-07-05T04:52:56;3.95;;;1.10;;
71046;SDS011;58703;48.978;8.982;2022-07-05T04:55:23;1.33;;;1.10;;
71046;SDS011;58703;48.978;8.982;2022-07-05T04:57:49;1.35;;;1.08;;
71046;SDS011;58703;48.978;8.982;2022-07-05T05:00:15;1.20;;;1.10;;
71046;SDS011;58703;48.978;8.982;2022-07-05T05:02:40;2.90;;;1.00;;
71046;SDS011;58703;48.978;8.982;2022-07-05T05:05:07;1.73;;;1.00;;
71046;SDS011;58703;48.978;8.982;2022-07-05T05:07:34;2.47;;;1.20;;
71046;SDS011;58703;48.978;8.982;2022-07-05T05:10:04;3.30;;;1.05;;
71046;SDS011;58703;48.978;8.982;2022-07-05T05:12:30;1.95;;;1.40;;
71046;SDS011;58703;48.978;8.982;2022-07-05T05:14:57;2.20;;;1.30;;
71046;SDS011;58703;48.978;8.982;2022-07-05T05:17:23;2.67;;;1.25;;
71046;SDS011;58703;48.978;8.982;2022-07-05T05:19:50;1.03;;;1.00;;
71046;SDS011;58703;48.978;8.982;2022-07-05T05:22:18;2.05;;;1.15;;
71046;SDS011;58703;48.978;8.982;2022-07-05T05:24:46;1.15;;;1.00;;
71046;SDS011;58703;48.978;8.982;2022-07-05T05:27:12;1.67;;;1.00;;
71046;SDS011;58703;48.978;8.982;2022-07-05T05:29:39;4.22;;;0.93;;
71046;SDS011;58703;48.978;8.982;2022-07-05T05:32:06;1.73;;;1.05;;
71046;SDS011;58703;48.978;8.982;2022-07-05T05:34:33;3.30;;;1.10;;
71046;SDS011;58703;48.978;8.982;2022-07-05T05:37:00;2.05;;;1.05;;
71046;SDS011;58703;48.978;8.982;2022-07-05T05:39:26;2.00;;;0.93;;
71046;SDS011;58703;48.978;8.982;2022-07-05T05:41:53;2.05;;;1.10;;
71046;SDS011;58703;48.978;8.982;2022-07-05T05:44:20;1.08;;;0.90;;
71046;SDS011;58703;48.978;8.982;2022-07-05T05:46:47;4.53;;;1.20;;
71046;SDS011;58703;48.978;8.982;2022-07-05T05:49:13;2.53;;;1.30;;
71046;SDS011;58703;48.978;8.982;2022-07-05T05:51:40;2.30;;;1.00;;
71046;SDS011;58703;48.978;8.982;2022-07-05T05:54:07;1.88;;;0.90;;
71046;SDS011;58703;48.978;8.982;2022-07-05T05:56:33;1.60;;;1.00;;
71046;SDS011;58703;48.978;8.982;2022-07-05T05:58:58;0.87;;;0.80;;
71046;SDS011;58703;48.978;8.982;2022-07-05T06:01:24;4.13;;;1.20;;
71046;SDS011;58703;48.978;8.982;2022-07-05T06:03:49;2.37;;;1.10;;
71046;SDS011;58703;48.978;8.982;2022-07-05T06:06:15;1.90;;;1.00;;
71046;SDS011;58703;48.978;8.982;2022-07-05T06:08:40;1.95;;;1.00;;
71046;SDS011;58703;48.978;8.982;2022-07-05T06:11:06;3.67;;;1.40;;
71046;SDS011;58703;48.978;8.982;2022-07-05T06:13:31;3.07;;;1.20;;
71046;SDS011;58703;48.978;8.982;2022-07-05T06:15:57;2.45;;;1.23;;
71046;SDS011;58703;48.978;8.982;2022-07-05T06:18:23;3.33;;;1.20;;
71046;SDS011;58703;48.978;8.982;2022-07-05T06:20:48;1.10;;;1.02;;
71046;SDS011;58703;48.978;8.982;2022-07-05T06:23:14;1.50;;;1.00;;
71046;SDS011;58703;48.978;8.982;2022-07-05T06:25:39;1.95;;;1.10;;
71046;SDS011;58703;48.978;8.982;2022-07-05T06:28:06;2.37;;;1.30;;
71046;SDS011;58703;48.978;8.982;2022-07-05T06:30:34;2.25;;;1.30;;
71046;SDS011;58703;48.978;8.982;2022-07-05T06:33:01;3.42;;;1.13;;
71046;SDS011;58703;48.978;8.982;2022-07-05T06:35:27;1.80;;;1.30;;
71046;SDS011;58703;48.978;8.982;2022-07-05T06:40:28;3.22;;;1.00;;
71046;SDS011;58703;48.978;8.982;2022-07-05T06:42:56;1.83;;;1.10;;
71046;SDS011;58703;48.978;8.982;2022-07-05T06:45:23;3.53;;;1.35;;
71046;SDS011;58703;48.978;8.982;2022-07-05T06:47:56;3.65;;;1.33;;
71046;SDS011;58703;48.978;8.982;2022-07-05T06:50:29;2.80;;;1.30;;
71046;SDS011;58703;48.978;8.982;2022-07-05T06:52:56;2.60;;;1.10;;
71046;SDS011;58703;48.978;8.982;2022-07-05T06:55:21;3.45;;;1.42;;
71046;SDS011;58703;48.978;8.982;2022-07-05T06:57:47;10.43;;;1.90;;
71046;SDS011;58703;48.978;8.982;2022-07-05T07:00:13;5.13;;;1.30;;
71046;SDS011;58703;48.978;8.982;2022-07-05T07:02:40;1.77;;;1.00;;
71046;SDS011;58703;48.978;8.982;2022-07-05T07:05:06;3.30;;;2.13;;
71046;SDS011;58703;48.978;8.982;2022-07-05T07:07:32;2.75;;;1.27;;
71046;SDS011;58703;48.978;8.982;2022-07-05T07:10:17;2.00;;;1.00;;
71046;SDS011;58703;48.978;8.982;2022-07-05T07:12:42;2.73;;;1.07;;
71046;SDS011;58703;48.978;8.982;2022-07-05T07:15:08;1.60;;;1.35;;
71046;SDS011;58703;48.978;8.982;2022-07-05T07:17:35;1.10;;;1.00;;
71046;SDS011;58703;48.978;8.982;2022-07-05T07:20:01;2.92;;;1.20;;
71046;SDS011;58703;48.978;8.982;2022-07-05T07:22:27;2.78;;;1.00;;
71046;SDS011;58703;48.978;8.982;2022-07-05T07:24:53;1.77;;;0.97;;
71046;SDS011;58703;48.978;8.982;2022-07-05T07:27:19;1.63;;;1.10;;
71046;SDS011;58703;48.978;8.982;2022-07-05T07:29:44;2.60;;;0.90;;
71046;SDS011;58703;48.978;8.982;2022-07-05T07:32:10;1.40;;;0.80;;
71046;SDS011;58703;48.978;8.982;2022-07-05T07:34:36;1.50;;;0.90;;
71046;SDS011;58703;48.978;8.982;2022-07-05T07:37:02;2.73;;;0.90;;
71046;SDS011;58703;48.978;8.982;2022-07-05T07:39:29;2.33;;;1.00;;
71046;SDS011;58703;48.978;8.982;2022-07-05T07:41:57;3.40;;;1.40;;
71046;SDS011;58703;48.978;8.982;2022-07-05T07:44:23;6.40;;;0.90;;
71046;SDS011;58703;48.978;8.982;2022-07-05T07:46:49;1.70;;;1.30;;
71046;SDS011;58703;48.978;8.982;2022-07-05T07:49:16;1.47;;;0.97;;
71046;SDS011;58703;48.978;8.982;2022-07-05T07:51:42;1.00;;;0.90;;
71046;SDS011;58703;48.978;8.982;2022-07-05T07:54:08;1.25;;;0.98;;
71046;SDS011;58703;48.978;8.982;2022-07-05T07:56:33;1.23;;;0.67;;
71046;SDS011;58703;48.978;8.982;2022-07-05T07:58:59;2.22;;;1.05;;
71046;SDS011;58703;48.978;8.982;2022-07-05T08:01:24;3.60;;;1.00;;
71046;SDS011;58703;48.978;8.982;2022-07-05T08:03:50;5.40;;;0.90;;
71046;SDS011;58703;48.978;8.982;2022-07-05T08:06:16;2.95;;;0.85;;
71046;SDS011;58703;48.978;8.982;2022-07-05T08:08:42;0.80;;;0.80;;
71046;SDS011;58703;48.978;8.982;2022-07-05T08:11:10;2.97;;;1.10;;
71046;SDS011;58703;48.978;8.982;2022-07-05T08:13:37;1.55;;;0.70;;
71046;SDS011;58703;48.978;8.982;2022-07-05T08:16:03;2.33;;;0.95;;
71046;SDS011;58703;48.978;8.982;2022-07-05T08:18:28;4.80;;;0.97;;
71046;SDS011;58703;48.978;8.982;2022-07-05T08:21:13;5.75;;;0.82;;
71046;SDS011;58703;48.978;8.982;2022-07-05T08:23:58;2.50;;;0.93;;
71046;SDS011;58703;48.978;8.982;2022-07-05T08:26:24;3.60;;;1.00;;
71046;SDS011;58703;48.978;8.982;2022-07-05T08:28:50;2.43;;;0.80;;
71046;SDS011;58703;48.978;8.982;2022-07-05T08:31:16;1.02;;;0.70;;
71046;SDS011;58703;48.978;8.982;2022-07-05T08:33:41;2.60;;;1.00;;
71046;SDS011;58703;48.978;8.982;2022-07-05T08:36:07;4.17;;;0.80;;
71046;SDS011;58703;48.978;8.982;2022-07-05T08:38:32;1.75;;;0.45;;
71046;SDS011;58703;48.978;8.982;2022-07-05T08:40:58;2.20;;;0.60;;
71046;SDS011;58703;48.978;8.982;2022-07-05T08:43:24;2.63;;;0.95;;
71046;SDS011;58703;48.978;8.982;2022-07-05T08:45:53;3.03;;;0.82;;
71046;SDS011;58703;48.978;8.982;2022-07-05T08:48:19;3.90;;;0.70;;
71046;SDS011;58703;48.978;8.982;2022-07-05T08:50:46;5.97;;;1.03;;
71046;SDS011;58703;48.978;8.982;2022-07-05T08:53:15;1.00;;;0.80;;
71046;SDS011;58703;48.978;8.982;2022-07-05T08:55:43;2.88;;;0.90;;
71046;SDS011;58703;48.978;8.982;2022-07-05T08:58:10;2.28;;;1.00;;
71046;SDS011;58703;48.978;8.982;2022-07-05T09:00:37;1.80;;;1.08;;
71046;SDS011;58703;48.978;8.982;2022-07-05T09:03:07;1.87;;;1.07;;
71046;SDS011;58703;48.978;8.982;2022-07-05T09:05:40;1.33;;;0.80;;
71046;SDS011;58703;48.978;8.982;2022-07-05T09:08:09;4.57;;;1.00;;
71046;SDS011;58703;48.978;8.982;2022-07-05T09:10:37;3.38;;;0.80;;
71046;SDS011;58703;48.978;8.982;2022-07-05T09:13:03;4.07;;;0.77;;
71046;SDS011;58703;48.978;8.982;2022-07-05T09:15:29;2.78;;;0.80;;
71046;SDS011;58703;48.978;8.982;2022-07-05T09:17:55;2.65;;;0.70;;
71046;SDS011;58703;48.978;8.982;2022-07-05T09:20:20;1.63;;;0.73;;
71046;SDS011;58703;48.978;8.982;2022-07-05T09:28:00;2.10;;;0.73;;
71046;SDS011;58703;48.978;8.982;2022-07-05T09:30:31;1.00;;;0.90;;
71046;SDS011;58703;48.978;8.982;2022-07-05T09:32:59;2.80;;;1.38;;
71046;SDS011;58703;48.978;8.982;2022-07-05T09:35:35;1.95;;;1.05;;
71046;SDS011;58703;48.978;8.982;2022-07-05T09:38:22;1.25;;;1.00;;
71046;SDS011;58703;48.978;8.982;2022-07-05T09:40:53;1.90;;;0.90;;
71046;SDS011;58703;48.978;8.982;2022-07-05T09:43:21;1.35;;;0.90;;
71046;SDS011;58703;48.978;8.982;2022-07-05T09:46:05;2.72;;;0.80;;
71046;SDS011;58703;48.978;8.982;2022-07-05T09:48:31;2.85;;;0.85;;
71046;SDS011;58703;48.978;8.982;2022-07-05T09:53:44;1.10;;;0.77;;
71046;SDS011;58703;48.978;8.982;2022-07-05T09:56:15;2.35;;;0.80;;
71046;SDS011;58703;48.978;8.982;2022-07-05T09:58:41;2.55;;;1.05;;
71046;SDS011;58703;48.978;8.982;2022-07-05T10:01:29;1.55;;;0.60;;
71046;SDS011;58703;48.978;8.982;2022-07-05T10:03:56;1.35;;;0.70;;
71046;SDS011;58703;48.978;8.982;2022-07-05T10:06:24;2.33;;;0.90;;
71046;SDS011;58703;48.978;8.982;2022-07-05T10:08:52;2.05;;;0.80;;
71046;SDS011;58703;48.978;8.982;2022-07-05T10:11:18;3.40;;;1.02;;
71046;SDS011;58703;48.978;8.982;2022-07-05T10:13:53;3.13;;;0.95;;
71046;SDS011;58703;48.978;8.982;2022-07-05T10:16:20;1.70;;;0.80;;
71046;SDS011;58703;48.978;8.982;2022-07-05T10:18:50;1.83;;;0.73;;
71046;SDS011;58703;48.978;8.982;2022-07-05T10:21:17;1.45;;;0.75;;
71046;SDS011;58703;48.978;8.982;2022-07-05T10:23:44;4.10;;;1.20;;
71046;SDS011;58703;48.978;8.982;2022-07-05T10:26:14;2.28;;;1.10;;
71046;SDS011;58703;48.978;8.982;2022-07-05T10:28:41;2.95;;;0.80;;
71046;SDS011;58703;48.978;8.982;2022-07-05T10:31:11;3.20;;;0.80;;
71046;SDS011;58703;48.978;8.982;2022-07-05T10:33:38;2.00;;;0.90;;
71046;SDS011;58703;48.978;8.982;2022-07-05T10:36:04;2.20;;;1.02;;
71046;SDS011;58703;48.978;8.982;2022-07-05T10:38:31;2.67;;;0.98;;
71046;SDS011;58703;48.978;8.982;2022-07-05T10:41:01;2.47;;;0.70;;
71046;SDS011;58703;48.978;8.982;2022-07-05T10:43:30;0.77;;;0.60;;
71046;SDS011;58703;48.978;8.982;2022-07-05T10:45:56;2.67;;;0.98;;
71046;SDS011;58703;48.978;8.982;2022-07-05T10:48:22;1.15;;;1.13;;
71046;SDS011;58703;48.978;8.982;2022-07-05T10:53:25;7.43;;;1.15;;
71046;SDS011;58703;48.978;8.982;2022-07-05T10:56:19;4.17;;;0.57;;
71046;SDS011;58703;48.978;8.982;2022-07-05T10:58:44;2.70;;;0.77;;
71046;SDS011;58703;48.978;8.982;2022-07-05T11:11:35;2.72;;;0.90;;
71046;SDS011;58703;48.978;8.982;2022-07-05T11:14:03;7.65;;;1.65;;
71046;SDS011;58703;48.978;8.982;2022-07-05T11:16:33;1.27;;;0.88;;
71046;SDS011;58703;48.978;8.982;2022-07-05T11:19:17;3.08;;;0.85;;
71046;SDS011;58703;48.978;8.982;2022-07-05T11:22:03;2.30;;;0.90;;
71046;SDS011;58703;48.978;8.982;2022-07-05T11:24:34;2.15;;;0.95;;
71046;SDS011;58703;48.978;8.982;2022-07-05T11:27:01;1.65;;;1.02;;
71046;SDS011;58703;48.978;8.982;2022-07-05T11:34:54;1.87;;;0.90;;
71046;SDS011;58703;48.978;8.982;2022-07-05T11:37:23;1.45;;;0.93;;
71046;SDS011;58703;48.978;8.982;2022-07-05T11:42:32;1.83;;;0.70;;
71046;SDS011;58703;48.978;8.982;2022-07-05T11:45:05;2.85;;;0.95;;
71046;SDS011;58703;48.978;8.982;2022-07-05T11:47:32;1.17;;;0.97;;
71046;SDS011;58703;48.978;8.982;2022-07-05T11:49:58;4.22;;;1.15;;
71046;SDS011;58703;48.978;8.982;2022-07-05T11:52:32;2.40;;;1.10;;
71046;SDS011;58703;48.978;8.982;2022-07-05T11:55:00;2.30;;;1.13;;
71046;SDS011;58703;48.978;8.982;2022-07-05T11:57:29;2.83;;;1.10;;
71046;SDS011;58703;48.978;8.982;2022-07-05T11:59:56;3.97;;;0.90;;
71046;SDS011;58703;48.978;8.982;2022-07-05T12:02:23;1.38;;;0.70;;
71046;SDS011;58703;48.978;8.982;2022-07-05T12:04:51;1.60;;;1.00;;
71046;SDS011;58703;48.978;8.982;2022-07-05T12:07:32;5.15;;;1.27;;
71046;SDS011;58703;48.978;8.982;2022-07-05T12:10:02;1.77;;;1.20;;
71046;SDS011;58703;48.978;8.982;2022-07-05T12:12:48;3.97;;;1.08;;
71046;SDS011;58703;48.978;8.982;2022-07-05T12:15:18;7.30;;;0.75;;
71046;SDS011;58703;48.978;8.982;2022-07-05T12:17:47;2.10;;;0.90;;
71046;SDS011;58703;48.978;8.982;2022-07-05T12:20:15;1.67;;;1.02;;
71046;SDS011;58703;48.978;8.982;2022-07-05T12:22:46;1.83;;;0.93;;
71046;SDS011;58703;48.978;8.982;2022-07-05T12:25:14;1.33;;;0.70;;
71046;SDS011;58703;48.978;8.982;2022-07-05T12:27:43;1.25;;;0.77;;
71046;SDS011;58703;48.978;8.982;2022-07-05T12:30:10;1.57;;;0.90;;
71046;SDS011;58703;48.978;8.982;2022-07-05T12:35:44;0.90;;;0.88;;
71046;SDS011;58703;48.978;8.982;2022-07-05T12:38:15;2.38;;;0.95;;
71046;SDS011;58703;48.978;8.982;2022-07-05T12:40:46;1.42;;;0.70;;
71046;SDS011;58703;48.978;8.982;2022-07-05T12:43:15;3.63;;;1.27;;
71046;SDS011;58703;48.978;8.982;2022-07-05T12:46:05;1.67;;;0.70;;
71046;SDS011;58703;48.978;8.982;2022-07-05T12:48:38;3.33;;;1.38;;
71046;SDS011;58703;48.978;8.982;2022-07-05T12:51:06;1.48;;;0.80;;
71046;SDS011;58703;48.978;8.982;2022-07-05T12:53:34;0.93;;;0.77;;
71046;SDS011;58703;48.978;8.982;2022-07-05T12:56:29;2.43;;;0.80;;
71046;SDS011;58703;48.978;8.982;2022-07-05T12:59:12;2.25;;;0.88;;
71046;SDS011;58703;48.978;8.982;2022-07-05T13:01:42;1.27;;;1.17;;
71046;SDS011;58703;48.978;8.982;2022-07-05T13:04:15;2.63;;;1.00;;
71046;SDS011;58703;48.978;8.982;2022-07-05T13:09:31;3.42;;;1.02;;
71046;SDS011;58703;48.978;8.982;2022-07-05T13:12:11;1.15;;;1.05;;
71046;SDS011;58703;48.978;8.982;2022-07-05T13:14:38;1.35;;;1.25;;
71046;SDS011;58703;48.978;8.982;2022-07-05T13:17:09;5.73;;;1.00;;
71046;SDS011;58703;48.978;8.982;2022-07-05T13:19:36;6.03;;;1.90;;
71046;SDS011;58703;48.978;8.982;2022-07-05T13:22:03;3.38;;;1.08;;
71046;SDS011;58703;48.978;8.982;2022-07-05T13:24:29;5.45;;;1.35;;
71046;SDS011;58703;48.978;8.982;2022-07-05T13:26:55;2.60;;;1.37;;
71046;SDS011;58703;48.978;8.982;2022-07-05T13:29:21;2.42;;;1.20;;
71046;SDS011;58703;48.978;8.982;2022-07-05T13:31:47;2.70;;;1.70;;
71046;SDS011;58703;48.978;8.982;2022-07-05T13:34:12;4.57;;;1.20;;
71046;SDS011;58703;48.978;8.982;2022-07-05T13:36:38;2.33;;;1.13;;
71046;SDS011;58703;48.978;8.982;2022-07-05T13:39:03;1.30;;;1.20;;
71046;SDS011;58703;48.978;8.982;2022-07-05T13:41:29;3.75;;;1.45;;
71046;SDS011;58703;48.978;8.982;2022-07-05T13:43:57;2.53;;;1.27;;
71046;SDS011;58703;48.978;8.982;2022-07-05T13:46:23;2.30;;;1.57;;
71046;SDS011;58703;48.978;8.982;2022-07-05T13:48:49;5.63;;;1.73;;
71046;SDS011;58703;48.978;8.982;2022-07-05T13:51:14;2.93;;;1.23;;
71046;SDS011;58703;48.978;8.982;2022-07-05T13:53:40;3.47;;;1.23;;
71046;SDS011;58703;48.978;8.982;2022-07-05T13:56:06;1.33;;;1.23;;
71046;SDS011;58703;48.978;8.982;2022-07-05T13:58:32;1.95;;;1.45;;
71046;SDS011;58703;48.978;8.982;2022-07-05T14:01:00;1.50;;;1.40;;
71046;SDS011;58703;48.978;8.982;2022-07-05T14:03:28;2.63;;;1.10;;
71046;SDS011;58703;48.978;8.982;2022-07-05T14:05:55;1.20;;;1.10;;
71046;SDS011;58703;48.978;8.982;2022-07-05T14:08:22;1.45;;;1.35;;
71046;SDS011;58703;48.978;8.982;2022-07-05T14:10:53;5.20;;;1.50;;
71046;SDS011;58703;48.978;8.982;2022-07-05T14:13:21;1.65;;;1.55;;
71046;SDS011;58703;48.978;8.982;2022-07-05T14:15:47;1.70;;;1.60;;
71046;SDS011;58703;48.978;8.982;2022-07-05T14:18:14;2.70;;;1.07;;
71046;SDS011;58703;48.978;8.982;2022-07-05T14:20:41;3.30;;;1.45;;
71046;SDS011;58703;48.978;8.982;2022-07-05T14:23:07;1.75;;;1.25;;
71046;SDS011;58703;48.978;8.982;2022-07-05T14:25:34;2.13;;;1.30;;
71046;SDS011;58703;48.978;8.982;2022-07-05T14:27:59;1.50;;;1.38;;
71046;SDS011;58703;48.978;8.982;2022-07-05T14:30:25;2.07;;;1.10;;
71046;SDS011;58703;48.978;8.982;2022-07-05T14:32:53;5.38;;;1.70;;
71046;SDS011;58703;48.978;8.982;2022-07-05T14:35:19;2.25;;;1.40;;
71046;SDS011;58703;48.978;8.982;2022-07-05T14:37:45;2.90;;;1.63;;
71046;SDS011;58703;48.978;8.982;2022-07-05T14:40:11;2.10;;;1.77;;
71046;SDS011;58703;48.978;8.982;2022-07-05T14:42:37;1.42;;;1.33;;
71046;SDS011;58703;48.978;8.982;2022-07-05T14:45:03;1.57;;;1.47;;
71046;SDS011;58703;48.978;8.982;2022-07-05T14:47:29;1.80;;;1.65;;
71046;SDS011;58703;48.978;8.982;2022-07-05T14:49:54;1.60;;;1.50;;
71046;SDS011;58703;48.978;8.982;2022-07-05T14:52:20;3.75;;;1.27;;
71046;SDS011;58703;48.978;8.982;2022-07-05T14:54:46;3.22;;;1.65;;
71046;SDS011;58703;48.978;8.982;2022-07-05T14:57:12;3.77;;;1.50;;
71046;SDS011;58703;48.978;8.982;2022-07-05T14:59:37;3.47;;;1.80;;
71046;SDS011;58703;48.978;8.982;2022-07-05T15:02:03;3.10;;;1.30;;
71046;SDS011;58703;48.978;8.982;2022-07-05T15:04:30;4.65;;;1.70;;
71046;SDS011;58703;48.978;8.982;2022-07-05T15:06:57;3.85;;;1.70;;
71046;SDS011;58703;48.978;8.982;2022-07-05T15:09:22;1.87;;;1.00;;
71046;SDS011;58703;48.978;8.982;2022-07-05T15:11:48;3.90;;;1.30;;
71046;SDS011;58703;48.978;8.982;2022-07-05T15:14:13;1.52;;;1.42;;
71046;SDS011;58703;48.978;8.982;2022-07-05T15:16:39;3.83;;;1.33;;
71046;SDS011;58703;48.978;8.982;2022-07-05T15:19:05;2.00;;;1.20;;
71046;SDS011;58703;48.978;8.982;2022-07-05T15:21:32;2.55;;;1.80;;
71046;SDS011;58703;48.978;8.982;2022-07-05T15:23:57;1.50;;;1.40;;
71046;SDS011;58703;48.978;8.982;2022-07-05T15:26:23;2.13;;;1.93;;
71046;SDS011;58703;48.978;8.982;2022-07-05T15:28:49;1.15;;;1.05;;